Terminal Aerodrome Forecast
Issued by NWS

Home | Current Version | Previous Version | Text Only | Print | Product List | Glossary On
Versions: 1 2 3 4 5 6 7 8 9 10 11 12 13 14 15
000
FTUS45 KRIW 140520
TAFCPR
TAF
KCPR 140520Z 1406/1506 23008KT P6SM SCT110
     FM141700 24013KT P6SM SCT100 BKN150
     FM142000 26011G18KT P6SM VCTS SCT080CB BKN140
     FM150100 36011G17KT P6SM VCSH SCT050 BKN080=

USA.gov is the U.S. government's official web portal to all federal, state and local government web resources and services.